sensor_id;sensor_type;location;lat;lon;timestamp;pressure;altitude;pressure_sealevel;temperature;humidity
65394;BME280;52002;49.760;6.512;2023-09-08T00:01:53;100179.92;;;16.96;76.86
65394;BME280;52002;49.760;6.512;2023-09-08T00:04:18;100180.86;;;16.95;76.90
65394;BME280;52002;49.760;6.512;2023-09-08T00:06:45;100179.95;;;16.95;76.72
65394;BME280;52002;49.760;6.512;2023-09-08T00:09:11;100179.46;;;16.93;76.73
65394;BME280;52002;49.760;6.512;2023-09-08T00:11:36;100177.96;;;16.89;76.75
65394;BME280;52002;49.760;6.512;2023-09-08T00:14:01;100176.48;;;16.82;76.79
65394;BME280;52002;49.760;6.512;2023-09-08T00:16:29;100179.16;;;16.79;77.14
65394;BME280;52002;49.760;6.512;2023-09-08T00:18:55;100174.95;;;16.78;77.19
65394;BME280;52002;49.760;6.512;2023-09-08T00:21:20;100175.45;;;16.77;77.07
65394;BME280;52002;49.760;6.512;2023-09-08T00:23:45;100169.58;;;16.77;77.18
65394;BME280;52002;49.760;6.512;2023-09-08T00:26:11;100171.85;;;16.77;77.30
65394;BME280;52002;49.760;6.512;2023-09-08T00:28:36;100168.65;;;16.77;77.37
65394;BME280;52002;49.760;6.512;2023-09-08T00:31:01;100172.60;;;16.75;77.30
65394;BME280;52002;49.760;6.512;2023-09-08T00:33:27;100173.45;;;16.74;77.16
65394;BME280;52002;49.760;6.512;2023-09-08T00:35:52;100176.02;;;16.74;77.19
65394;BME280;52002;49.760;6.512;2023-09-08T00:38:19;100174.37;;;16.73;77.27
65394;BME280;52002;49.760;6.512;2023-09-08T00:40:44;100172.94;;;16.71;77.17
65394;BME280;52002;49.760;6.512;2023-09-08T00:43:10;100173.40;;;16.70;77.33
65394;BME280;52002;49.760;6.512;2023-09-08T00:45:38;100175.77;;;16.70;77.20
65394;BME280;52002;49.760;6.512;2023-09-08T00:48:06;100176.70;;;16.69;77.24
65394;BME280;52002;49.760;6.512;2023-09-08T00:50:32;100176.84;;;16.68;77.19
65394;BME280;52002;49.760;6.512;2023-09-08T00:52:57;100173.04;;;16.65;77.25
65394;BME280;52002;49.760;6.512;2023-09-08T00:55:23;100176.15;;;16.62;77.28
65394;BME280;52002;49.760;6.512;2023-09-08T00:57:48;100175.23;;;16.60;77.49
65394;BME280;52002;49.760;6.512;2023-09-08T01:00:14;100175.61;;;16.58;77.55
65394;BME280;52002;49.760;6.512;2023-09-08T01:02:39;100178.02;;;16.54;77.56
65394;BME280;52002;49.760;6.512;2023-09-08T01:05:05;100175.60;;;16.52;77.60
65394;BME280;52002;49.760;6.512;2023-09-08T01:07:31;100177.08;;;16.48;77.58
65394;BME280;52002;49.760;6.512;2023-09-08T01:09:58;100174.87;;;16.40;77.60
65394;BME280;52002;49.760;6.512;2023-09-08T01:12:29;100177.88;;;16.34;77.91
65394;BME280;52002;49.760;6.512;2023-09-08T01:14:54;100178.52;;;16.29;78.13
65394;BME280;52002;49.760;6.512;2023-09-08T01:17:20;100183.04;;;16.27;78.40
65394;BME280;52002;49.760;6.512;2023-09-08T01:19:47;100182.30;;;16.25;78.53
65394;BME280;52002;49.760;6.512;2023-09-08T01:22:39;100180.34;;;16.25;78.54
65394;BME280;52002;49.760;6.512;2023-09-08T01:27:37;100186.33;;;16.24;78.66
65394;BME280;52002;49.760;6.512;2023-09-08T01:30:05;100185.94;;;16.24;78.60
65394;BME280;52002;49.760;6.512;2023-09-08T01:32:32;100183.81;;;16.22;78.57
65394;BME280;52002;49.760;6.512;2023-09-08T01:34:58;100177.52;;;16.23;78.59
65394;BME280;52002;49.760;6.512;2023-09-08T01:37:25;100183.98;;;16.24;78.54
65394;BME280;52002;49.760;6.512;2023-09-08T01:39:50;100181.80;;;16.23;78.65
65394;BME280;52002;49.760;6.512;2023-09-08T01:42:16;100184.65;;;16.23;78.72
65394;BME280;52002;49.760;6.512;2023-09-08T01:44:41;100181.52;;;16.26;78.59
65394;BME280;52002;49.760;6.512;2023-09-08T01:47:06;100182.23;;;16.24;78.28
65394;BME280;52002;49.760;6.512;2023-09-08T01:49:31;100176.77;;;16.24;78.17
65394;BME280;52002;49.760;6.512;2023-09-08T01:51:57;100176.54;;;16.23;78.11
65394;BME280;52002;49.760;6.512;2023-09-08T01:54:22;100173.42;;;16.21;77.95
65394;BME280;52002;49.760;6.512;2023-09-08T01:56:47;100171.66;;;16.17;77.74
65394;BME280;52002;49.760;6.512;2023-09-08T01:59:13;100172.14;;;16.13;77.73
65394;BME280;52002;49.760;6.512;2023-09-08T02:01:38;100168.57;;;16.09;77.69
65394;BME280;52002;49.760;6.512;2023-09-08T02:04:04;100170.52;;;16.08;77.87
65394;BME280;52002;49.760;6.512;2023-09-08T02:06:29;100168.98;;;16.07;77.88
65394;BME280;52002;49.760;6.512;2023-09-08T02:08:54;100170.13;;;16.05;77.83
65394;BME280;52002;49.760;6.512;2023-09-08T02:11:20;100168.95;;;16.04;77.81
65394;BME280;52002;49.760;6.512;2023-09-08T02:13:45;100171.04;;;16.00;77.56
65394;BME280;52002;49.760;6.512;2023-09-08T02:16:14;100173.26;;;15.96;77.64
65394;BME280;52002;49.760;6.512;2023-09-08T02:18:43;100174.33;;;15.93;77.60
65394;BME280;52002;49.760;6.512;2023-09-08T02:21:09;100175.64;;;15.87;77.60
65394;BME280;52002;49.760;6.512;2023-09-08T02:23:34;100173.06;;;15.84;77.66
65394;BME280;52002;49.760;6.512;2023-09-08T02:26:00;100176.70;;;15.82;77.71
65394;BME280;52002;49.760;6.512;2023-09-08T02:28:25;100174.85;;;15.81;77.75
65394;BME280;52002;49.760;6.512;2023-09-08T02:30:50;100175.84;;;15.82;77.95
65394;BME280;52002;49.760;6.512;2023-09-08T02:33:16;100178.63;;;15.81;77.83
65394;BME280;52002;49.760;6.512;2023-09-08T02:35:41;100179.94;;;15.80;77.97
65394;BME280;52002;49.760;6.512;2023-09-08T02:38:07;100175.67;;;15.80;77.94
65394;BME280;52002;49.760;6.512;2023-09-08T02:40:32;100179.38;;;15.81;77.94
65394;BME280;52002;49.760;6.512;2023-09-08T02:43:00;100177.08;;;15.82;77.91
65394;BME280;52002;49.760;6.512;2023-09-08T02:45:26;100174.89;;;15.81;77.79
65394;BME280;52002;49.760;6.512;2023-09-08T02:47:51;100178.45;;;15.77;77.74
65394;BME280;52002;49.760;6.512;2023-09-08T02:50:16;100181.07;;;15.75;77.67
65394;BME280;52002;49.760;6.512;2023-09-08T02:52:42;100179.86;;;15.71;77.73
65394;BME280;52002;49.760;6.512;2023-09-08T02:55:07;100181.27;;;15.68;77.77
65394;BME280;52002;49.760;6.512;2023-09-08T02:57:33;100183.29;;;15.66;77.89
65394;BME280;52002;49.760;6.512;2023-09-08T02:59:58;100180.33;;;15.65;77.86
65394;BME280;52002;49.760;6.512;2023-09-08T03:02:25;100179.28;;;15.61;77.74
65394;BME280;52002;49.760;6.512;2023-09-08T03:04:50;100177.59;;;15.59;77.71
65394;BME280;52002;49.760;6.512;2023-09-08T03:07:16;100177.84;;;15.55;77.73
65394;BME280;52002;49.760;6.512;2023-09-08T03:09:41;100177.86;;;15.53;77.83
65394;BME280;52002;49.760;6.512;2023-09-08T03:12:06;100175.55;;;15.49;77.77
65394;BME280;52002;49.760;6.512;2023-09-08T03:14:32;100180.82;;;15.47;77.81
65394;BME280;52002;49.760;6.512;2023-09-08T03:16:57;100180.25;;;15.46;77.78
65394;BME280;52002;49.760;6.512;2023-09-08T03:19:22;100180.91;;;15.44;77.84
65394;BME280;52002;49.760;6.512;2023-09-08T03:21:48;100181.56;;;15.45;77.91
65394;BME280;52002;49.760;6.512;2023-09-08T03:24:13;100178.29;;;15.42;77.78
65394;BME280;52002;49.760;6.512;2023-09-08T03:26:38;100177.40;;;15.39;77.71
65394;BME280;52002;49.760;6.512;2023-09-08T03:29:06;100172.58;;;15.35;77.66
65394;BME280;52002;49.760;6.512;2023-09-08T03:31:31;100175.40;;;15.32;77.74
65394;BME280;52002;49.760;6.512;2023-09-08T03:33:57;100178.45;;;15.30;77.75
65394;BME280;52002;49.760;6.512;2023-09-08T03:36:22;100177.30;;;15.29;77.79
65394;BME280;52002;49.760;6.512;2023-09-08T03:38:47;100170.55;;;15.28;77.95
65394;BME280;52002;49.760;6.512;2023-09-08T03:41:12;100170.73;;;15.28;78.01
65394;BME280;52002;49.760;6.512;2023-09-08T03:43:38;100169.17;;;15.29;78.11
65394;BME280;52002;49.760;6.512;2023-09-08T03:46:04;100166.52;;;15.29;78.24
65394;BME280;52002;49.760;6.512;2023-09-08T03:48:29;100168.16;;;15.29;78.30
65394;BME280;52002;49.760;6.512;2023-09-08T03:50:54;100164.77;;;15.29;78.33
65394;BME280;52002;49.760;6.512;2023-09-08T03:53:20;100165.94;;;15.28;78.18
65394;BME280;52002;49.760;6.512;2023-09-08T03:55:45;100164.70;;;15.26;78.08
65394;BME280;52002;49.760;6.512;2023-09-08T03:58:11;100170.25;;;15.27;78.12
65394;BME280;52002;49.760;6.512;2023-09-08T04:00:36;100168.53;;;15.26;78.01
65394;BME280;52002;49.760;6.512;2023-09-08T04:03:02;100166.41;;;15.25;77.84
65394;BME280;52002;49.760;6.512;2023-09-08T04:05:27;100169.83;;;15.24;77.75
65394;BME280;52002;49.760;6.512;2023-09-08T04:07:53;100167.06;;;15.19;77.78
65394;BME280;52002;49.760;6.512;2023-09-08T04:10:18;100170.31;;;15.17;77.88
65394;BME280;52002;49.760;6.512;2023-09-08T04:12:43;100173.27;;;15.16;78.14
65394;BME280;52002;49.760;6.512;2023-09-08T04:15:10;100171.92;;;15.17;78.31
65394;BME280;52002;49.760;6.512;2023-09-08T04:17:36;100173.52;;;15.19;78.41
65394;BME280;52002;49.760;6.512;2023-09-08T04:20:03;100175.29;;;15.19;78.39
65394;BME280;52002;49.760;6.512;2023-09-08T04:22:30;100178.96;;;15.19;78.23
65394;BME280;52002;49.760;6.512;2023-09-08T04:24:55;100173.07;;;15.15;78.30
65394;BME280;52002;49.760;6.512;2023-09-08T04:27:22;100175.17;;;15.14;78.41
65394;BME280;52002;49.760;6.512;2023-09-08T04:29:47;100171.60;;;15.13;78.42
65394;BME280;52002;49.760;6.512;2023-09-08T04:32:13;100170.77;;;15.13;78.48
65394;BME280;52002;49.760;6.512;2023-09-08T04:34:39;100170.42;;;15.11;78.49
65394;BME280;52002;49.760;6.512;2023-09-08T04:37:05;100173.88;;;15.11;78.56
65394;BME280;52002;49.760;6.512;2023-09-08T04:39:32;100175.20;;;15.08;78.59
65394;BME280;52002;49.760;6.512;2023-09-08T04:41:58;100170.98;;;15.07;78.59
65394;BME280;52002;49.760;6.512;2023-09-08T04:44:23;100173.56;;;15.05;78.79
65394;BME280;52002;49.760;6.512;2023-09-08T04:46:48;100173.77;;;15.05;78.74
65394;BME280;52002;49.760;6.512;2023-09-08T04:49:14;100173.21;;;15.03;78.44
65394;BME280;52002;49.760;6.512;2023-09-08T04:51:39;100175.55;;;15.01;78.33
65394;BME280;52002;49.760;6.512;2023-09-08T04:54:04;100178.79;;;14.99;78.20
65394;BME280;52002;49.760;6.512;2023-09-08T04:56:30;100178.36;;;14.97;78.40
65394;BME280;52002;49.760;6.512;2023-09-08T04:58:55;100176.31;;;14.98;78.56
65394;BME280;52002;49.760;6.512;2023-09-08T05:01:23;100178.48;;;14.99;78.68
65394;BME280;52002;49.760;6.512;2023-09-08T05:03:48;100181.98;;;15.01;78.84
65394;BME280;52002;49.760;6.512;2023-09-08T05:06:14;100185.96;;;15.05;78.86
65394;BME280;52002;49.760;6.512;2023-09-08T05:08:39;100182.79;;;15.08;78.77
65394;BME280;52002;49.760;6.512;2023-09-08T05:11:04;100187.02;;;15.10;78.69
65394;BME280;52002;49.760;6.512;2023-09-08T05:13:30;100187.61;;;15.13;78.72
65394;BME280;52002;49.760;6.512;2023-09-08T05:15:56;100187.17;;;15.14;78.55
65394;BME280;52002;49.760;6.512;2023-09-08T05:18:28;100190.45;;;15.15;78.21
65394;BME280;52002;49.760;6.512;2023-09-08T05:20:54;100191.25;;;15.14;78.19
65394;BME280;52002;49.760;6.512;2023-09-08T05:23:19;100187.30;;;15.13;78.26
65394;BME280;52002;49.760;6.512;2023-09-08T05:25:45;100190.45;;;15.15;78.37
65394;BME280;52002;49.760;6.512;2023-09-08T05:28:10;100196.67;;;15.17;78.35
65394;BME280;52002;49.760;6.512;2023-09-08T05:30:36;100195.77;;;15.21;78.21
65394;BME280;52002;49.760;6.512;2023-09-08T05:33:01;100199.90;;;15.21;77.84
65394;BME280;52002;49.760;6.512;2023-09-08T05:35:26;100201.64;;;15.19;77.99
65394;BME280;52002;49.760;6.512;2023-09-08T05:37:52;100203.46;;;15.21;77.98
65394;BME280;52002;49.760;6.512;2023-09-08T05:40:17;100201.95;;;15.20;77.90
65394;BME280;52002;49.760;6.512;2023-09-08T05:42:44;100201.05;;;15.22;78.06
65394;BME280;52002;49.760;6.512;2023-09-08T05:45:09;100203.89;;;15.24;77.86
65394;BME280;52002;49.760;6.512;2023-09-08T05:47:34;100206.20;;;15.27;77.68
65394;BME280;52002;49.760;6.512;2023-09-08T05:50:01;100207.13;;;15.28;77.60
65394;BME280;52002;49.760;6.512;2023-09-08T05:52:26;100212.70;;;15.32;77.62
65394;BME280;52002;49.760;6.512;2023-09-08T05:54:53;100215.40;;;15.37;77.55
65394;BME280;52002;49.760;6.512;2023-09-08T05:57:19;100219.10;;;15.39;77.44
65394;BME280;52002;49.760;6.512;2023-09-08T05:59:44;100218.69;;;15.43;77.37
65394;BME280;52002;49.760;6.512;2023-09-08T06:02:09;100218.77;;;15.48;77.31
65394;BME280;52002;49.760;6.512;2023-09-08T06:04:35;100214.52;;;15.52;77.27
65394;BME280;52002;49.760;6.512;2023-09-08T06:07:00;100219.30;;;15.58;77.14
65394;BME280;52002;49.760;6.512;2023-09-08T06:09:25;100219.48;;;15.63;77.00
65394;BME280;52002;49.760;6.512;2023-09-08T06:11:51;100218.88;;;15.67;76.97
65394;BME280;52002;49.760;6.512;2023-09-08T06:14:16;100214.95;;;15.73;77.07
65394;BME280;52002;49.760;6.512;2023-09-08T06:16:41;100216.19;;;15.80;76.95
65394;BME280;52002;49.760;6.512;2023-09-08T06:19:07;100212.23;;;15.84;76.79
65394;BME280;52002;49.760;6.512;2023-09-08T06:21:32;100211.95;;;15.87;76.55
65394;BME280;52002;49.760;6.512;2023-09-08T06:23:57;100209.55;;;15.86;76.32
65394;BME280;52002;49.760;6.512;2023-09-08T06:26:23;100209.56;;;15.84;76.34
65394;BME280;52002;49.760;6.512;2023-09-08T06:28:48;100209.95;;;15.78;76.08
65394;BME280;52002;49.760;6.512;2023-09-08T06:31:13;100210.22;;;15.76;76.43
65394;BME280;52002;49.760;6.512;2023-09-08T06:33:40;100208.98;;;15.93;76.17
65394;BME280;52002;49.760;6.512;2023-09-08T06:36:05;100207.55;;;16.21;75.91
65394;BME280;52002;49.760;6.512;2023-09-08T06:38:32;100208.05;;;16.52;75.31
65394;BME280;52002;49.760;6.512;2023-09-08T06:40:58;100207.13;;;16.88;74.78
65394;BME280;52002;49.760;6.512;2023-09-08T06:43:23;100209.25;;;17.23;74.38
65394;BME280;52002;49.760;6.512;2023-09-08T06:45:49;100211.41;;;17.26;74.15
65394;BME280;52002;49.760;6.512;2023-09-08T06:48:15;100205.68;;;17.27;73.80
65394;BME280;52002;49.760;6.512;2023-09-08T06:50:41;100206.37;;;17.34;73.46
65394;BME280;52002;49.760;6.512;2023-09-08T06:53:06;100205.27;;;17.29;73.60
65394;BME280;52002;49.760;6.512;2023-09-08T06:55:32;100208.20;;;17.41;73.22
65394;BME280;52002;49.760;6.512;2023-09-08T06:57:58;100202.89;;;17.52;73.14
65394;BME280;52002;49.760;6.512;2023-09-08T07:00:23;100204.34;;;17.47;73.45
65394;BME280;52002;49.760;6.512;2023-09-08T07:02:49;100206.05;;;17.46;73.52
65394;BME280;52002;49.760;6.512;2023-09-08T07:05:15;100203.74;;;17.46;73.41
65394;BME280;52002;49.760;6.512;2023-09-08T07:07:41;100207.92;;;17.45;73.45
65394;BME280;52002;49.760;6.512;2023-09-08T07:10:07;100206.39;;;17.50;73.45
65394;BME280;52002;49.760;6.512;2023-09-08T07:12:34;100212.84;;;17.59;73.58
65394;BME280;52002;49.760;6.512;2023-09-08T07:14:59;100212.71;;;17.69;73.26
65394;BME280;52002;49.760;6.512;2023-09-08T07:17:25;100213.11;;;17.91;72.99
65394;BME280;52002;49.760;6.512;2023-09-08T07:19:51;100214.02;;;18.71;72.20
65394;BME280;52002;49.760;6.512;2023-09-08T07:22:17;100217.40;;;20.23;69.70
65394;BME280;52002;49.760;6.512;2023-09-08T07:24:43;100214.17;;;20.53;68.50
65394;BME280;52002;49.760;6.512;2023-09-08T07:27:09;100213.30;;;20.51;68.17
65394;BME280;52002;49.760;6.512;2023-09-08T07:29:35;100214.29;;;20.71;67.70
65394;BME280;52002;49.760;6.512;2023-09-08T07:32:00;100215.34;;;22.02;65.63
65394;BME280;52002;49.760;6.512;2023-09-08T07:34:25;100213.23;;;24.39;62.37
65394;BME280;52002;49.760;6.512;2023-09-08T07:36:50;100221.52;;;27.19;58.33
65394;BME280;52002;49.760;6.512;2023-09-08T07:39:16;100229.45;;;28.96;55.11
65394;BME280;52002;49.760;6.512;2023-09-08T07:41:41;100225.63;;;28.79;53.58
65394;BME280;52002;49.760;6.512;2023-09-08T07:44:06;100225.15;;;28.83;51.34
65394;BME280;52002;49.760;6.512;2023-09-08T07:46:32;100225.52;;;29.32;49.37
65394;BME280;52002;49.760;6.512;2023-09-08T07:48:59;100226.31;;;30.00;47.91
65394;BME280;52002;49.760;6.512;2023-09-08T07:51:25;100226.27;;;30.54;46.56
65394;BME280;52002;49.760;6.512;2023-09-08T07:53:53;100224.05;;;30.76;46.44
65394;BME280;52002;49.760;6.512;2023-09-08T07:56:19;100226.02;;;32.13;44.30
65394;BME280;52002;49.760;6.512;2023-09-08T07:58:44;100229.64;;;33.12;43.27
65394;BME280;52002;49.760;6.512;2023-09-08T08:01:10;100227.98;;;33.43;42.05
65394;BME280;52002;49.760;6.512;2023-09-08T08:03:35;100226.54;;;32.94;41.56
65394;BME280;52002;49.760;6.512;2023-09-08T08:06:01;100225.54;;;31.89;42.04
65394;BME280;52002;49.760;6.512;2023-09-08T08:08:27;100224.42;;;30.83;43.05
65394;BME280;52002;49.760;6.512;2023-09-08T08:10:52;100224.80;;;29.82;44.22
65394;BME280;52002;49.760;6.512;2023-09-08T08:13:18;100221.42;;;28.86;45.22
65394;BME280;52002;49.760;6.512;2023-09-08T08:15:44;100215.58;;;28.04;46.40
65394;BME280;52002;49.760;6.512;2023-09-08T08:18:12;100213.54;;;27.34;47.55
65394;BME280;52002;49.760;6.512;2023-09-08T08:20:38;100209.93;;;26.71;48.67
65394;BME280;52002;49.760;6.512;2023-09-08T08:23:05;100208.79;;;26.05;49.59
65394;BME280;52002;49.760;6.512;2023-09-08T08:25:31;100206.88;;;25.44;50.88
65394;BME280;52002;49.760;6.512;2023-09-08T08:27:57;100208.39;;;24.93;51.89
65394;BME280;52002;49.760;6.512;2023-09-08T08:30:24;100209.20;;;24.45;52.76
65394;BME280;52002;49.760;6.512;2023-09-08T08:32:50;100213.19;;;24.01;53.64
65394;BME280;52002;49.760;6.512;2023-09-08T08:35:16;100209.02;;;23.62;54.62
65394;BME280;52002;49.760;6.512;2023-09-08T08:37:42;100208.00;;;23.31;55.41
65394;BME280;52002;49.760;6.512;2023-09-08T08:40:09;100210.27;;;23.07;56.44
65394;BME280;52002;49.760;6.512;2023-09-08T08:42:36;100210.20;;;22.89;57.10
65394;BME280;52002;49.760;6.512;2023-09-08T08:45:01;100215.58;;;22.73;57.36
65394;BME280;52002;49.760;6.512;2023-09-08T08:47:28;100212.98;;;22.59;57.86
65394;BME280;52002;49.760;6.512;2023-09-08T08:49:56;100211.21;;;22.46;58.07
65394;BME280;52002;49.760;6.512;2023-09-08T08:52:22;100210.23;;;22.33;58.38
65394;BME280;52002;49.760;6.512;2023-09-08T08:54:48;100206.33;;;22.19;58.83
65394;BME280;52002;49.760;6.512;2023-09-08T08:57:14;100200.31;;;22.11;59.19
65394;BME280;52002;49.760;6.512;2023-09-08T08:59:40;100202.08;;;22.05;59.66
65394;BME280;52002;49.760;6.512;2023-09-08T09:02:07;100199.60;;;22.02;60.00
65394;BME280;52002;49.760;6.512;2023-09-08T09:04:36;100195.84;;;22.02;60.40
65394;BME280;52002;49.760;6.512;2023-09-08T09:07:02;100194.26;;;22.01;61.02
65394;BME280;52002;49.760;6.512;2023-09-08T09:09:29;100192.66;;;22.02;61.19
65394;BME280;52002;49.760;6.512;2023-09-08T09:11:54;100191.78;;;22.02;60.82
65394;BME280;52002;49.760;6.512;2023-09-08T09:14:20;100190.99;;;22.01;60.83
65394;BME280;52002;49.760;6.512;2023-09-08T09:16:45;100194.30;;;22.02;61.10
65394;BME280;52002;49.760;6.512;2023-09-08T09:19:21;100192.31;;;22.06;61.75
65394;BME280;52002;49.760;6.512;2023-09-08T09:21:51;100192.74;;;22.14;62.15
65394;BME280;52002;49.760;6.512;2023-09-08T09:24:48;100189.31;;;22.20;62.38
65394;BME280;52002;49.760;6.512;2023-09-08T09:27:14;100187.89;;;22.28;62.92
65394;BME280;52002;49.760;6.512;2023-09-08T09:29:47;100187.57;;;22.33;62.92
65394;BME280;52002;49.760;6.512;2023-09-08T09:32:13;100183.70;;;22.38;62.97
65394;BME280;52002;49.760;6.512;2023-09-08T09:34:50;100182.64;;;22.43;63.04
65394;BME280;52002;49.760;6.512;2023-09-08T09:37:16;100180.59;;;22.49;62.92
65394;BME280;52002;49.760;6.512;2023-09-08T09:39:42;100176.69;;;22.56;63.16
65394;BME280;52002;49.760;6.512;2023-09-08T09:42:07;100176.42;;;22.65;63.47
65394;BME280;52002;49.760;6.512;2023-09-08T09:44:32;100176.36;;;22.73;63.60
65394;BME280;52002;49.760;6.512;2023-09-08T09:47:00;100174.33;;;22.81;63.53
65394;BME280;52002;49.760;6.512;2023-09-08T09:49:26;100173.13;;;22.91;63.69
65394;BME280;52002;49.760;6.512;2023-09-08T09:51:58;100175.95;;;23.00;63.26
65394;BME280;52002;49.760;6.512;2023-09-08T09:54:23;100173.36;;;23.08;63.17
65394;BME280;52002;49.760;6.512;2023-09-08T09:56:48;100171.12;;;23.16;63.33
65394;BME280;52002;49.760;6.512;2023-09-08T09:59:17;100170.95;;;23.23;62.76
65394;BME280;52002;49.760;6.512;2023-09-08T10:01:42;100169.88;;;23.28;62.36
65394;BME280;52002;49.760;6.512;2023-09-08T10:04:08;100168.67;;;23.35;62.38
65394;BME280;52002;49.760;6.512;2023-09-08T10:06:38;100169.39;;;23.42;62.12
65394;BME280;52002;49.760;6.512;2023-09-08T10:09:05;100169.42;;;23.49;61.99
65394;BME280;52002;49.760;6.512;2023-09-08T10:11:47;100173.02;;;23.59;61.93
65394;BME280;52002;49.760;6.512;2023-09-08T10:14:15;100175.63;;;23.66;61.57
65394;BME280;52002;49.760;6.512;2023-09-08T10:16:43;100170.93;;;23.72;61.55
65394;BME280;52002;49.760;6.512;2023-09-08T10:19:10;100168.65;;;23.80;61.65
65394;BME280;52002;49.760;6.512;2023-09-08T10:21:40;100167.59;;;23.88;61.56
65394;BME280;52002;49.760;6.512;2023-09-08T10:24:26;100167.23;;;23.95;61.38
65394;BME280;52002;49.760;6.512;2023-09-08T10:27:06;100167.12;;;24.04;61.20
65394;BME280;52002;49.760;6.512;2023-09-08T10:29:34;100160.51;;;24.12;60.94
65394;BME280;52002;49.760;6.512;2023-09-08T10:32:01;100158.95;;;24.18;60.87
65394;BME280;52002;49.760;6.512;2023-09-08T10:34:27;100158.34;;;24.22;60.68
65394;BME280;52002;49.760;6.512;2023-09-08T10:36:54;100163.45;;;24.27;60.82
65394;BME280;52002;49.760;6.512;2023-09-08T10:44:41;100154.23;;;24.41;60.71
65394;BME280;52002;49.760;6.512;2023-09-08T10:47:06;100153.86;;;24.46;60.85
65394;BME280;52002;49.760;6.512;2023-09-08T10:49:35;100149.59;;;24.50;60.85
65394;BME280;52002;49.760;6.512;2023-09-08T10:52:10;100146.94;;;24.54;60.87
65394;BME280;52002;49.760;6.512;2023-09-08T10:54:53;100142.19;;;24.60;60.69
65394;BME280;52002;49.760;6.512;2023-09-08T10:57:25;100135.70;;;24.65;60.26
65394;BME280;52002;49.760;6.512;2023-09-08T11:02:42;100136.21;;;24.71;60.12
65394;BME280;52002;49.760;6.512;2023-09-08T11:05:14;100140.89;;;24.80;60.08
65394;BME280;52002;49.760;6.512;2023-09-08T11:07:42;100143.17;;;24.87;59.65
65394;BME280;52002;49.760;6.512;2023-09-08T11:10:09;100141.02;;;24.93;59.38
65394;BME280;52002;49.760;6.512;2023-09-08T11:12:35;100139.70;;;25.01;59.82
65394;BME280;52002;49.760;6.512;2023-09-08T11:15:05;100140.21;;;25.07;59.87
65394;BME280;52002;49.760;6.512;2023-09-08T11:17:31;100142.80;;;25.14;59.97
65394;BME280;52002;49.760;6.512;2023-09-08T11:19:57;100141.52;;;25.19;60.10
65394;BME280;52002;49.760;6.512;2023-09-08T11:22:24;100145.17;;;25.26;59.96
65394;BME280;52002;49.760;6.512;2023-09-08T11:24:51;100141.77;;;25.31;59.67
65394;BME280;52002;49.760;6.512;2023-09-08T11:27:17;100142.80;;;25.36;59.21
65394;BME280;52002;49.760;6.512;2023-09-08T11:29:44;100146.17;;;25.43;59.38
65394;BME280;52002;49.760;6.512;2023-09-08T11:32:10;100142.50;;;25.48;59.31
65394;BME280;52002;49.760;6.512;2023-09-08T11:34:36;100140.46;;;25.52;59.16
65394;BME280;52002;49.760;6.512;2023-09-08T11:37:12;100142.77;;;25.54;58.65
65394;BME280;52002;49.760;6.512;2023-09-08T11:39:45;100138.93;;;25.56;58.66
65394;BME280;52002;49.760;6.512;2023-09-08T11:42:13;100136.10;;;25.57;59.00
65394;BME280;52002;49.760;6.512;2023-09-08T11:44:38;100136.23;;;25.63;59.10
65394;BME280;52002;49.760;6.512;2023-09-08T11:47:06;100134.98;;;25.67;58.72
65394;BME280;52002;49.760;6.512;2023-09-08T11:49:35;100131.26;;;25.69;58.63
65394;BME280;52002;49.760;6.512;2023-09-08T11:52:01;100132.58;;;25.74;58.61
65394;BME280;52002;49.760;6.512;2023-09-08T11:54:27;100126.64;;;25.77;58.73
65394;BME280;52002;49.760;6.512;2023-09-08T11:56:54;100129.66;;;25.79;58.60
65394;BME280;52002;49.760;6.512;2023-09-08T11:59:20;100126.73;;;25.81;58.27
65394;BME280;52002;49.760;6.512;2023-09-08T12:01:45;100125.61;;;25.82;58.35
65394;BME280;52002;49.760;6.512;2023-09-08T12:04:18;100130.66;;;25.83;58.49
65394;BME280;52002;49.760;6.512;2023-09-08T12:06:45;100129.98;;;25.86;58.52
65394;BME280;52002;49.760;6.512;2023-09-08T12:09:11;100125.36;;;25.87;58.06
65394;BME280;52002;49.760;6.512;2023-09-08T12:11:37;100122.81;;;25.89;58.20
65394;BME280;52002;49.760;6.512;2023-09-08T12:14:07;100126.33;;;25.91;58.11
65394;BME280;52002;49.760;6.512;2023-09-08T12:16:33;100127.13;;;25.93;58.13
65394;BME280;52002;49.760;6.512;2023-09-08T12:18:59;100125.61;;;25.96;58.11
65394;BME280;52002;49.760;6.512;2023-09-08T12:21:24;100124.31;;;25.96;58.14
65394;BME280;52002;49.760;6.512;2023-09-08T12:23:51;100126.91;;;25.98;57.97
65394;BME280;52002;49.760;6.512;2023-09-08T12:26:17;100120.79;;;26.02;57.78
65394;BME280;52002;49.760;6.512;2023-09-08T12:28:43;100119.77;;;26.05;57.86
65394;BME280;52002;49.760;6.512;2023-09-08T12:31:09;100123.20;;;26.09;58.04
65394;BME280;52002;49.760;6.512;2023-09-08T12:33:36;100115.15;;;26.13;57.54
65394;BME280;52002;49.760;6.512;2023-09-08T12:36:14;100108.44;;;26.14;57.32
65394;BME280;52002;49.760;6.512;2023-09-08T12:38:41;100111.71;;;26.15;57.07
65394;BME280;52002;49.760;6.512;2023-09-08T12:41:06;100107.25;;;26.16;56.67
65394;BME280;52002;49.760;6.512;2023-09-08T12:43:32;100106.58;;;26.18;56.94
65394;BME280;52002;49.760;6.512;2023-09-08T12:45:57;100105.39;;;26.18;57.30
65394;BME280;52002;49.760;6.512;2023-09-08T12:48:23;100103.20;;;26.21;57.36
65394;BME280;52002;49.760;6.512;2023-09-08T12:50:49;100100.52;;;26.26;57.25
65394;BME280;52002;49.760;6.512;2023-09-08T12:53:15;100097.61;;;26.28;57.19
65394;BME280;52002;49.760;6.512;2023-09-08T12:55:43;100096.84;;;26.30;57.07
65394;BME280;52002;49.760;6.512;2023-09-08T12:58:08;100096.52;;;26.33;57.57